createdAt,value
2017-09-24T00:09:01.969Z,12.78
2017-09-24T00:18:39.191Z,12.78
2017-09-24T00:28:16.364Z,12.68
2017-09-24T00:37:53.725Z,12.68
2017-09-24T00:47:31.095Z,12.48
2017-09-24T00:57:07.194Z,12.19
2017-09-24T01:06:45.309Z,11.99
2017-09-24T01:16:22.358Z,11.89
2017-09-24T01:25:59.414Z,11.80
2017-09-24T01:35:36.667Z,11.70
2017-09-24T01:45:13.247Z,11.41
2017-09-24T01:54:50.155Z,11.21
2017-09-24T02:04:26.808Z,10.82
2017-09-24T02:14:03.191Z,10.53
2017-09-24T02:23:40.240Z,10.33
2017-09-24T02:33:16.935Z,10.13
2017-09-24T02:42:53.936Z,10.04
2017-09-24T02:52:30.667Z,9.94
2017-09-24T03:02:07.563Z,9.84
2017-09-24T03:11:44.203Z,9.65
2017-09-24T03:21:21.453Z,9.55
2017-09-24T03:30:57.997Z,9.55
2017-09-24T03:40:35.283Z,9.74
2017-09-24T03:50:12.866Z,9.84
2017-09-24T03:59:50.329Z,9.94
2017-09-24T04:09:27.555Z,9.94
2017-09-24T04:19:04.292Z,9.84
2017-09-24T04:28:41.023Z,9.65
2017-09-24T04:38:18.265Z,9.55
2017-09-24T04:47:55.301Z,9.45
2017-09-24T04:57:32.597Z,9.55
2017-09-24T05:07:09.994Z,9.55
2017-09-24T05:16:46.598Z,9.74
2017-09-24T05:26:24.873Z,9.74
2017-09-24T05:36:02.478Z,9.94
2017-09-24T05:45:40.057Z,10.13
2017-09-24T05:55:17.945Z,10.53
2017-09-24T06:04:55.673Z,10.92
2017-09-24T06:14:33.225Z,11.11
2017-09-24T06:24:11.314Z,11.50
2017-09-24T06:33:48.940Z,11.80
2017-09-24T06:43:26.805Z,12.19
2017-09-24T06:53:04.720Z,12.29
2017-09-24T07:02:42.572Z,12.68
2017-09-24T07:12:23.930Z,12.68
2017-09-24T07:21:55.465Z,12.68
2017-09-24T07:31:33.231Z,13.07
2017-09-24T07:41:10.892Z,13.36
2017-09-24T07:50:50.329Z,14.05
2017-09-24T08:00:32.173Z,14.34
2017-09-24T08:10:03.372Z,13.95
2017-09-24T08:19:40.954Z,14.44
2017-09-24T08:29:18.896Z,15.03
2017-09-24T08:38:57.604Z,15.22
2017-09-24T08:48:35.301Z,15.42
2017-09-24T08:58:12.759Z,15.12
2017-09-24T09:07:51.208Z,15.61
2017-09-24T09:17:28.893Z,15.81
2017-09-24T09:27:06.468Z,16.30
2017-09-24T09:36:45.639Z,16.88
2017-09-24T09:46:25.062Z,17.67
2017-09-24T09:56:04.079Z,18.15
2017-09-24T10:05:41.852Z,17.67
2017-09-24T10:15:20.352Z,17.76
2017-09-24T10:24:56.988Z,17.08
2017-09-24T10:34:32.790Z,16.69
2017-09-24T10:44:10.833Z,16.69
2017-09-24T10:53:49.098Z,17.27
2017-09-24T11:03:26.160Z,16.49
2017-09-24T11:13:03.194Z,16.69
2017-09-24T11:22:39.438Z,16.78
2017-09-24T11:32:14.881Z,16.79
2017-09-24T11:41:50.549Z,16.79
2017-09-24T11:51:27.717Z,17.27
2017-09-24T12:01:05.414Z,18.06
2017-09-24T12:10:40.034Z,16.79
2017-09-24T12:20:14.298Z,16.40
2017-09-24T12:29:49.464Z,16.49
2017-09-24T12:39:25.190Z,15.81
2017-09-24T12:49:00.597Z,15.71
2017-09-24T12:58:40.690Z,16.30
2017-09-24T13:08:10.223Z,16.20
2017-09-24T13:17:45.661Z,15.90
2017-09-24T13:27:22.494Z,16.88
2017-09-24T13:37:00.100Z,16.88
2017-09-24T13:46:34.953Z,16.49
2017-09-24T13:56:11.155Z,16.59
2017-09-24T14:05:47.591Z,16.88
2017-09-24T14:15:22.505Z,16.30
2017-09-24T14:24:58.786Z,15.90
2017-09-24T14:34:34.471Z,15.81
2017-09-24T14:44:10.431Z,15.71
2017-09-24T14:53:45.674Z,15.42
2017-09-24T15:03:22.182Z,15.12
2017-09-24T15:12:59.032Z,15.03
2017-09-24T15:22:35.251Z,14.83
2017-09-24T15:32:11.748Z,15.03
2017-09-24T15:41:48.666Z,15.42
2017-09-24T15:51:27.130Z,15.42
2017-09-24T16:01:02.350Z,15.12
2017-09-24T16:10:37.534Z,14.73
2017-09-24T16:20:14.109Z,14.24
2017-09-24T16:29:49.594Z,13.85
2017-09-24T16:39:29.216Z,13.46
2017-09-24T16:49:02.867Z,12.97
2017-09-24T16:58:36.781Z,12.77
2017-09-24T17:08:07.144Z,12.58
2017-09-24T17:17:43.619Z,12.87
2017-09-24T17:27:19.567Z,12.77
2017-09-24T17:37:00.133Z,12.68
2017-09-24T17:46:30.617Z,12.68
2017-09-24T17:56:06.811Z,12.58
2017-09-24T18:05:43.203Z,12.48
2017-09-24T18:15:20.123Z,12.38
2017-09-24T18:24:55.206Z,12.48
2017-09-24T18:34:31.229Z,12.29
2017-09-24T18:44:07.858Z,12.29
2017-09-24T18:53:44.636Z,12.38
2017-09-24T19:03:20.313Z,12.38
2017-09-24T19:12:57.753Z,12.38
2017-09-24T19:22:34.184Z,12.48
2017-09-24T19:32:10.689Z,12.58
2017-09-24T19:41:47.256Z,12.48
2017-09-24T19:51:27.652Z,12.48
2017-09-24T20:00:57.918Z,12.48
2017-09-24T20:10:33.932Z,12.38
2017-09-24T20:20:11.084Z,12.29
2017-09-24T20:29:47.287Z,12.29
2017-09-24T20:39:23.195Z,12.29
2017-09-24T20:49:00.766Z,12.19
2017-09-24T20:58:37.047Z,12.19
2017-09-24T21:08:12.882Z,12.09
2017-09-24T21:17:49.117Z,11.99
2017-09-24T21:27:26.604Z,11.99
2017-09-24T21:37:01.892Z,12.09
2017-09-24T21:46:39.206Z,11.99
2017-09-24T21:56:15.275Z,11.89
2017-09-24T22:05:51.554Z,11.80
2017-09-24T22:15:31.545Z,11.70
2017-09-24T22:25:01.577Z,11.60
2017-09-24T22:34:38.083Z,11.70
2017-09-24T22:44:13.911Z,11.60
2017-09-24T22:53:51.356Z,11.70
2017-09-24T23:03:27.486Z,11.70
2017-09-24T23:13:03.999Z,11.70
2017-09-24T23:22:40.191Z,11.70
2017-09-24T23:32:16.791Z,11.60
2017-09-24T23:41:52.680Z,11.50
2017-09-24T23:51:28.762Z,11.41
